1.100 kWh

EHAM AMSTERDAM/SCHIPHOL NLD -3 m.
METAR EHAM 221725Z 11011KT CAVOK 07/05 Q1002 NOSIG

EHAM AMSTERDAM/SCHIPHOL NLD -3 m.
TAF EHAM 221716Z 2218/2324 10011KT CAVOK